This is the latest recevied weather packets stored in our database for station/object KG7FOQ-13. If no packets are shown the sender has not sent any weather packets the latest 1 day(s).
| Time | Temp. | Humidity | Pressure | Rain* | Wind** | Luminosity | Snow |
|---|---|---|---|---|---|---|---|
| 1778051085 | 8.89° C | 51% | 1014.8 hPa | 0 mm | - | - | - |
| 1778050484 | 8.89° C | 52% | 1014.7 hPa | 0 mm | - | - | - |
| 1778049883 | 8.89° C | 51% | 1014.3 hPa | 0 mm | - | - | - |
| 1778049582 | 8.89° C | 51% | 1014.2 hPa | 0 mm | - | - | - |
| 1778049282 | 8.89° C | 53% | 1014.2 hPa | 0 mm | - | - | - |
| 1778048981 | 8.89° C | 55% | 1014 hPa | 0 mm | - | - | - |
| 1778048681 | 8.89° C | 58% | 1013.8 hPa | 0 mm | - | - | - |
| 1778048380 | 9.44° C | 56% | 1013.7 hPa | 0 mm | - | - | - |
| 1778048080 | 10° C | 48% | 1013.5 hPa | 0 mm | - | - | - |
| 1778047779 | 10° C | 49% | 1013.5 hPa | 0 mm | - | - | - |
| 1778047178 | 10.56° C | 50% | 1012.9 hPa | 0 mm | - | - | - |
| 1778046878 | 10.56° C | 51% | 1012.7 hPa | 0 mm | - | - | - |
| 1778046577 | 10.56° C | 58% | 1012.6 hPa | 0 mm | - | - | - |
| 1778046277 | 11.11° C | 57% | 1012.3 hPa | 0 mm | - | - | - |
| 1778045976 | 11.67° C | 59% | 1012.1 hPa | 0 mm | - | - | - |
| 1778045673 | 11.67° C | 65% | 1011.8 hPa | 0 mm | - | - | - |
| 1778045373 | 11.67° C | 69% | 1011.4 hPa | 0 mm | - | - | - |
| 1778044771 | 11.67° C | 70% | 1010.8 hPa | 0 mm | - | - | - |
| 1778044470 | 11.11° C | 73% | 1010.5 hPa | 0 mm | - | - | - |
| 1778044170 | 11.67° C | 69% | 1010 hPa | 0 mm | - | - | - |
| 1778043869 | 11.11° C | 68% | 1009.8 hPa | 0 mm | - | - | - |
| 1778043569 | 11.67° C | 63% | 1009.7 hPa | 0 mm | - | - | - |
| 1778042968 | 12.22° C | 55% | 1009.2 hPa | 0 mm | - | - | - |
| 1778042367 | 13.33° C | 54% | 1009 hPa | 0 mm | - | - | - |
| 1778042066 | 13.33° C | 53% | 1009 hPa | 0 mm | - | - | - |
* Rain latest hour (hover to see other rain measurements)
** Current wind speed in m/s (hover to see current wind gust speed)